Hlavní strana
METAR-TAF:

METAR-TAF

Letiště :

Shingle Point, Yukon, Kanada

zeměpisná šířka: 68-57N, zeměpisná délka: 137-13W, výška: 56 m

Aktuální stav počasí

Zpráva byla vytvořena před 43 minutami, v 15:00 UTC
Východojihovýchodní vítr 6 kt
Teplota -11°C
Vlhkost vzduchu 78%
Tlak 1024 hPa
Zataženo ve výšce 5000 ft

METAR: CYUA 201500Z AUTO 12006KT ////SM OVC050 M11/M14 A3023

Čas: 08:43 (15:43 UTC)


TAF: chybějící

Stav a předpovědi počasí z více než 4 000 letišť (zprávy METAR a TAF).

Červené a žluté tečky na mapě představují dostupné meteorologické stanice.

Když kurzor umístíte na tečku, zobrazí se název stanice.

Pak kliknutím zobrazíte stav a předpověď počasí.

Chcete-li změnit mapu, kliknutím na zelené tlačítko se znaménkem +mapu přiblížíte, kliknutím na zelené tlačítko se znaménkem – mapu oddálíte a kliknutím na zelené šipky přejdete na sousední mapy.


METAR-TAF: